createdAt,value
2023-01-27T00:01:35.710Z,9.49
2023-01-27T00:04:05.639Z,9.50
2023-01-27T00:06:36.502Z,9.45
2023-01-27T00:09:04.947Z,9.42
2023-01-27T00:11:50.759Z,9.48
2023-01-27T00:14:19.069Z,9.50
2023-01-27T00:16:47.297Z,9.40
2023-01-27T00:19:19.841Z,9.47
2023-01-27T00:22:05.676Z,9.55
2023-01-27T00:24:36.973Z,9.60
2023-01-27T00:27:06.048Z,9.64
2023-01-27T00:29:34.290Z,9.55
2023-01-27T00:32:20.261Z,9.49
2023-01-27T00:34:49.977Z,9.46
2023-01-27T00:37:18.338Z,9.40
2023-01-27T00:39:46.580Z,8.63
2023-01-27T00:42:14.895Z,9.27
2023-01-27T00:45:03.100Z,9.18
2023-01-27T00:47:31.391Z,9.22
2023-01-27T00:50:01.246Z,9.28
2023-01-27T00:52:30.492Z,9.05
2023-01-27T00:54:58.805Z,9.26
2023-01-27T00:57:27.118Z,9.23
2023-01-27T00:59:55.434Z,9.29
2023-01-27T01:02:23.835Z,9.20
2023-01-27T01:04:52.305Z,9.39
2023-01-27T01:07:22.118Z,9.40
2023-01-27T01:09:50.424Z,9.40
2023-01-27T01:12:18.684Z,9.42
2023-01-27T01:14:46.983Z,9.42
2023-01-27T01:17:15.220Z,9.44
2023-01-27T01:19:43.522Z,9.33
2023-01-27T01:22:11.791Z,9.31
2023-01-27T01:24:41.428Z,9.29
2023-01-27T01:27:09.718Z,9.26
2023-01-27T01:29:38.046Z,9.25
2023-01-27T01:32:09.907Z,9.28
2023-01-27T01:34:38.950Z,9.34
2023-01-27T01:37:07.233Z,8.73
2023-01-27T01:39:36.368Z,9.26
2023-01-27T01:42:06.147Z,9.09
2023-01-27T01:44:34.907Z,9.15
2023-01-27T01:47:03.200Z,9.11
2023-01-27T01:49:36.284Z,9.11
2023-01-27T01:52:10.468Z,9.06
2023-01-27T01:54:43.702Z,8.89
2023-01-27T01:57:18.884Z,8.88
2023-01-27T01:59:52.422Z,8.78
2023-01-27T02:02:27.416Z,8.81
2023-01-27T02:05:01.948Z,8.75
2023-01-27T02:07:35.957Z,8.78
2023-01-27T02:10:04.968Z,8.67
2023-01-27T02:12:37.569Z,8.60
2023-01-27T02:15:11.513Z,8.62
2023-01-27T02:17:40.340Z,8.61
2023-01-27T02:20:16.187Z,8.61
2023-01-27T02:22:52.595Z,8.62
2023-01-27T02:25:29.601Z,8.64
2023-01-27T02:27:59.462Z,8.51
2023-01-27T02:30:28.826Z,8.55
2023-01-27T02:32:57.235Z,8.61
2023-01-27T02:35:32.161Z,8.54
2023-01-27T02:38:01.301Z,8.52
2023-01-27T02:40:30.824Z,8.37
2023-01-27T02:43:01.207Z,8.37
2023-01-27T02:45:29.926Z,8.47
2023-01-27T02:47:58.231Z,8.25
2023-01-27T02:50:26.614Z,8.28
2023-01-27T02:52:54.888Z,8.21
2023-01-27T02:55:23.772Z,8.37
2023-01-27T02:57:53.194Z,8.29
2023-01-27T03:00:55.769Z,8.46
2023-01-27T03:03:24.182Z,8.19
2023-01-27T03:05:52.471Z,8.15
2023-01-27T03:08:21.067Z,8.07
2023-01-27T03:10:52.647Z,7.93
2023-01-27T03:13:24.292Z,7.88
2023-01-27T03:16:14.587Z,7.82
2023-01-27T03:18:47.359Z,7.71
2023-01-27T03:21:17.192Z,7.79
2023-01-27T03:23:50.959Z,7.63
2023-01-27T03:26:23.520Z,7.81
2023-01-27T03:29:10.301Z,7.85
2023-01-27T03:31:43.261Z,7.86
2023-01-27T03:34:12.011Z,7.94
2023-01-27T03:37:07.052Z,7.90
2023-01-27T03:39:53.647Z,8.03
2023-01-27T03:42:39.566Z,7.95
2023-01-27T03:45:27.320Z,7.75
2023-01-27T03:47:57.171Z,7.60
2023-01-27T03:50:31.189Z,7.72
2023-01-27T03:53:04.037Z,7.73
2023-01-27T03:55:32.958Z,7.71
2023-01-27T03:58:14.572Z,7.75
2023-01-27T04:00:43.066Z,7.59
2023-01-27T04:03:30.276Z,7.45
2023-01-27T04:06:16.197Z,7.53
2023-01-27T04:08:44.550Z,7.45
2023-01-27T04:11:31.821Z,7.43
2023-01-27T04:14:03.027Z,7.55
2023-01-27T04:16:31.952Z,7.61
2023-01-27T04:19:01.762Z,7.54
2023-01-27T04:21:30.374Z,7.46
2023-01-27T04:23:58.833Z,7.45
2023-01-27T04:26:33.058Z,7.46
2023-01-27T04:29:01.962Z,7.33
2023-01-27T04:31:30.287Z,7.35
2023-01-27T04:33:58.996Z,7.19
2023-01-27T04:36:28.659Z,7.18
2023-01-27T04:38:56.919Z,7.14
2023-01-27T04:41:25.194Z,7.00
2023-01-27T04:43:53.556Z,7.02
2023-01-27T04:46:21.859Z,6.95
2023-01-27T04:48:50.161Z,6.81
2023-01-27T04:51:18.504Z,6.82
2023-01-27T04:53:48.360Z,6.88
2023-01-27T04:56:24.973Z,6.97
2023-01-27T04:58:54.014Z,7.08
2023-01-27T05:01:22.880Z,7.15
2023-01-27T05:03:51.147Z,7.14
2023-01-27T05:06:19.393Z,7.10
2023-01-27T05:08:49.399Z,6.99
2023-01-27T05:11:17.999Z,6.59
2023-01-27T05:13:46.519Z,6.69
2023-01-27T05:16:17.713Z,6.76
2023-01-27T05:18:49.016Z,6.75
2023-01-27T05:21:19.832Z,6.73
2023-01-27T05:23:50.673Z,6.66
2023-01-27T05:26:20.294Z,6.75
2023-01-27T05:28:50.582Z,6.74
2023-01-27T05:31:21.673Z,6.97
2023-01-27T05:33:51.853Z,7.10
2023-01-27T05:36:24.079Z,7.17
2023-01-27T05:38:54.735Z,7.10
2023-01-27T05:41:23.368Z,6.97
2023-01-27T05:43:54.825Z,6.99
2023-01-27T05:46:25.052Z,6.99
2023-01-27T05:48:55.186Z,7.16
2023-01-27T05:51:26.665Z,7.08
2023-01-27T05:53:56.815Z,7.16
2023-01-27T05:56:26.662Z,7.02
2023-01-27T05:58:55.661Z,6.75
2023-01-27T06:01:26.803Z,6.82
2023-01-27T06:03:55.673Z,6.95
2023-01-27T06:06:26.696Z,6.85
2023-01-27T06:08:56.375Z,7.10
2023-01-27T06:11:25.295Z,6.88
2023-01-27T06:13:54.735Z,7.12
2023-01-27T06:16:24.471Z,7.05
2023-01-27T06:18:53.147Z,6.96
2023-01-27T06:21:21.547Z,7.04
2023-01-27T06:23:50.513Z,7.10
2023-01-27T06:26:21.360Z,7.11
2023-01-27T06:28:49.639Z,7.21
2023-01-27T06:31:22.092Z,7.13
2023-01-27T06:33:51.197Z,7.09
2023-01-27T06:36:22.375Z,7.08
2023-01-27T06:38:51.363Z,7.15
2023-01-27T06:41:22.103Z,7.13
2023-01-27T06:43:50.425Z,7.05
2023-01-27T06:46:18.808Z,7.14
2023-01-27T06:48:47.228Z,7.06
2023-01-27T06:51:15.722Z,7.04
2023-01-27T06:53:43.978Z,7.12
2023-01-27T06:56:12.225Z,7.18
2023-01-27T06:58:42.697Z,7.17
2023-01-27T07:01:11.052Z,7.09
2023-01-27T07:03:39.359Z,7.05
2023-01-27T07:06:08.610Z,7.01
2023-01-27T07:08:36.868Z,7.05
2023-01-27T07:11:06.404Z,6.92
2023-01-27T07:13:34.789Z,7.04
2023-01-27T07:16:04.637Z,6.83
2023-01-27T07:18:33.116Z,6.98
2023-01-27T07:21:01.376Z,7.04
2023-01-27T07:23:29.718Z,7.12
2023-01-27T07:26:00.055Z,7.16
2023-01-27T07:28:29.219Z,6.95
2023-01-27T07:31:02.016Z,6.90
2023-01-27T07:33:31.714Z,6.87
2023-01-27T07:36:00.006Z,6.93
2023-01-27T07:38:28.323Z,7.02
2023-01-27T07:40:58.066Z,7.00
2023-01-27T07:43:26.443Z,7.02
2023-01-27T07:45:57.015Z,6.77
2023-01-27T07:48:26.116Z,7.03
2023-01-27T07:50:55.786Z,7.07
2023-01-27T07:53:24.055Z,7.08
2023-01-27T07:55:52.361Z,7.12
2023-01-27T07:58:20.688Z,7.16
2023-01-27T08:00:48.977Z,7.20
2023-01-27T08:03:24.444Z,7.22
2023-01-27T08:05:53.021Z,7.18
2023-01-27T08:08:22.802Z,7.28
2023-01-27T08:10:51.461Z,7.18
2023-01-27T08:13:19.770Z,7.14
2023-01-27T08:15:48.044Z,7.21
2023-01-27T08:18:16.387Z,7.21
2023-01-27T08:20:46.143Z,7.10
2023-01-27T08:23:14.636Z,7.07
2023-01-27T08:25:51.482Z,7.01
2023-01-27T08:28:20.881Z,6.87
2023-01-27T08:30:51.915Z,6.84
2023-01-27T08:33:21.171Z,6.82
2023-01-27T08:35:49.749Z,6.74
2023-01-27T08:38:20.687Z,6.82
2023-01-27T08:40:50.345Z,6.96
2023-01-27T08:43:19.732Z,6.88
2023-01-27T08:45:48.347Z,6.86
2023-01-27T08:48:16.621Z,7.19
2023-01-27T08:50:44.939Z,7.42
2023-01-27T08:53:13.432Z,7.56
2023-01-27T08:55:41.751Z,7.69
2023-01-27T08:58:11.428Z,7.66
2023-01-27T09:00:40.033Z,7.78
2023-01-27T09:03:08.376Z,7.73
2023-01-27T09:05:37.737Z,7.94
2023-01-27T09:08:07.357Z,7.95
2023-01-27T09:10:39.982Z,8.01
2023-01-27T09:13:10.607Z,8.07
2023-01-27T09:15:40.636Z,7.89
2023-01-27T09:18:08.948Z,8.06
2023-01-27T09:20:38.195Z,8.29
2023-01-27T09:23:07.030Z,8.48
2023-01-27T09:25:35.305Z,8.73
2023-01-27T09:28:03.777Z,9.31
2023-01-27T09:30:33.511Z,9.49
2023-01-27T09:33:01.972Z,9.48
2023-01-27T09:35:37.584Z,9.28
2023-01-27T09:38:06.897Z,9.31
2023-01-27T09:40:47.879Z,9.31
2023-01-27T09:43:54.702Z,9.54
2023-01-27T09:46:51.804Z,9.51
2023-01-27T09:49:41.414Z,9.85
2023-01-27T09:52:47.194Z,10.19
2023-01-27T09:55:25.236Z,10.36
2023-01-27T09:58:04.542Z,10.59
2023-01-27T10:00:48.139Z,10.79
2023-01-27T10:04:06.756Z,10.92
2023-01-27T10:07:05.909Z,11.21
2023-01-27T10:09:59.372Z,11.32
2023-01-27T10:12:46.941Z,11.61
2023-01-27T10:15:33.443Z,11.82
2023-01-27T10:18:16.599Z,12.14
2023-01-27T10:20:52.671Z,12.31
2023-01-27T10:23:35.911Z,12.10
2023-01-27T10:26:16.505Z,12.14
2023-01-27T10:28:51.422Z,12.26
2023-01-27T10:31:27.002Z,12.50
2023-01-27T10:33:58.375Z,12.53
2023-01-27T10:36:30.248Z,12.37
2023-01-27T10:39:24.950Z,12.07
2023-01-27T10:42:06.446Z,12.22
2023-01-27T10:44:56.554Z,12.50
2023-01-27T10:47:40.615Z,12.46
2023-01-27T10:50:15.138Z,12.63
2023-01-27T10:52:49.463Z,12.75
2023-01-27T10:55:25.664Z,12.79
2023-01-27T10:58:00.083Z,12.90
2023-01-27T11:01:05.081Z,12.94
2023-01-27T11:03:29.268Z,12.88
2023-01-27T11:06:02.550Z,13.01
2023-01-27T11:08:36.408Z,12.96
2023-01-27T11:11:27.810Z,13.03
2023-01-27T11:14:04.610Z,12.81
2023-01-27T11:16:37.893Z,12.78
2023-01-27T11:19:20.055Z,12.76
2023-01-27T11:22:06.218Z,12.72
2023-01-27T11:24:46.285Z,12.73
2023-01-27T11:27:28.561Z,12.71
2023-01-27T11:30:04.383Z,12.48
2023-01-27T11:32:46.000Z,12.16
2023-01-27T11:35:16.986Z,12.26
2023-01-27T11:37:49.141Z,12.38
2023-01-27T11:40:23.415Z,12.29
2023-01-27T11:42:54.481Z,11.99
2023-01-27T11:45:23.145Z,11.76
2023-01-27T11:47:56.170Z,11.55
2023-01-27T11:50:34.396Z,11.52
2023-01-27T11:53:13.760Z,11.36
2023-01-27T11:55:45.283Z,11.35
2023-01-27T11:58:24.283Z,11.27
2023-01-27T12:00:58.075Z,11.17
2023-01-27T12:03:43.911Z,10.87
2023-01-27T12:06:17.855Z,10.73
2023-01-27T12:08:49.692Z,10.63
2023-01-27T12:11:24.684Z,10.50
2023-01-27T12:13:57.466Z,10.35
2023-01-27T12:16:42.411Z,10.29
2023-01-27T12:19:25.108Z,10.15
2023-01-27T12:21:57.599Z,10.16
2023-01-27T12:24:30.995Z,10.14
2023-01-27T12:27:01.411Z,9.78
2023-01-27T12:29:40.911Z,9.84
2023-01-27T12:32:17.434Z,9.75
2023-01-27T12:34:50.349Z,9.71
2023-01-27T12:37:28.155Z,9.71
2023-01-27T12:40:02.428Z,9.77
2023-01-27T12:42:42.928Z,9.58
2023-01-27T12:45:27.634Z,9.53
2023-01-27T12:48:19.829Z,8.96
2023-01-27T12:51:06.895Z,9.18
2023-01-27T12:53:35.329Z,8.79
2023-01-27T12:56:13.228Z,8.93
2023-01-27T12:58:43.281Z,9.05
2023-01-27T13:01:31.199Z,9.10
2023-01-27T13:04:04.058Z,8.88
2023-01-27T13:06:42.338Z,8.98
2023-01-27T13:09:28.415Z,8.98
2023-01-27T13:11:59.807Z,8.98
2023-01-27T13:14:31.100Z,8.84
2023-01-27T13:17:00.811Z,9.02
2023-01-27T13:19:40.766Z,8.98
2023-01-27T13:22:18.858Z,9.04
2023-01-27T13:24:51.830Z,8.99
2023-01-27T13:27:23.802Z,8.89
2023-01-27T13:29:59.389Z,8.67
2023-01-27T13:32:33.008Z,8.67
2023-01-27T13:35:16.480Z,8.73
2023-01-27T13:37:52.774Z,8.80
2023-01-27T13:40:25.503Z,8.80
2023-01-27T13:42:59.542Z,8.79
2023-01-27T13:45:38.710Z,8.89
2023-01-27T13:48:17.643Z,8.88
2023-01-27T13:50:49.467Z,8.84
2023-01-27T13:53:20.268Z,8.95
2023-01-27T13:56:12.371Z,8.93
2023-01-27T13:58:52.747Z,8.92
2023-01-27T14:01:29.715Z,9.01
2023-01-27T14:04:27.397Z,8.65
2023-01-27T14:07:14.185Z,8.55
2023-01-27T14:09:58.562Z,8.75
2023-01-27T14:12:47.797Z,8.85
2023-01-27T14:15:27.192Z,8.83
2023-01-27T14:18:06.218Z,8.80
2023-01-27T14:20:55.734Z,8.68
2023-01-27T14:23:39.570Z,8.80
2023-01-27T14:26:21.777Z,8.83
2023-01-27T14:29:14.896Z,8.67
2023-01-27T14:31:52.606Z,8.66
2023-01-27T14:34:42.200Z,8.63
2023-01-27T14:37:23.680Z,8.59
2023-01-27T14:40:07.520Z,8.58
2023-01-27T14:42:43.728Z,8.57
2023-01-27T14:45:20.923Z,8.57
2023-01-27T14:47:59.208Z,8.57
2023-01-27T14:50:34.565Z,8.51
2023-01-27T14:53:33.646Z,8.45
2023-01-27T14:56:13.883Z,8.43
2023-01-27T14:58:53.892Z,8.42
2023-01-27T15:01:35.020Z,8.41
2023-01-27T15:04:37.354Z,8.41
2023-01-27T15:07:17.858Z,8.21
2023-01-27T15:10:17.470Z,8.17
2023-01-27T15:13:14.113Z,8.13
2023-01-27T15:16:17.816Z,8.14
2023-01-27T15:19:06.951Z,8.19
2023-01-27T15:21:57.148Z,8.26
2023-01-27T15:24:55.539Z,8.27
2023-01-27T15:27:24.488Z,8.21
2023-01-27T15:29:53.201Z,8.16
2023-01-27T15:32:30.995Z,8.12
2023-01-27T15:35:33.498Z,8.06
2023-01-27T15:38:19.764Z,8.08
2023-01-27T15:41:04.850Z,8.08
2023-01-27T15:43:34.431Z,8.11
2023-01-27T15:46:31.663Z,8.09
2023-01-27T15:49:01.761Z,8.05
2023-01-27T15:51:35.933Z,7.87
2023-01-27T15:54:05.902Z,7.86
2023-01-27T15:56:46.701Z,7.69
2023-01-27T15:59:20.177Z,7.77
2023-01-27T16:01:50.241Z,7.78
2023-01-27T16:04:25.144Z,7.82
2023-01-27T16:07:02.232Z,7.76
2023-01-27T16:09:42.213Z,7.83
2023-01-27T16:12:47.921Z,7.91
2023-01-27T16:15:36.304Z,7.89
2023-01-27T16:18:28.187Z,7.93
2023-01-27T16:21:03.675Z,7.91
2023-01-27T16:23:46.051Z,8.02
2023-01-27T16:26:31.177Z,7.99
2023-01-27T16:29:24.872Z,8.06
2023-01-27T16:31:59.846Z,8.15
2023-01-27T16:34:35.771Z,8.14
2023-01-27T16:37:17.278Z,8.10
2023-01-27T16:39:51.804Z,7.93
2023-01-27T16:42:22.587Z,7.92
2023-01-27T16:44:53.297Z,7.90
2023-01-27T16:47:28.799Z,7.96
2023-01-27T16:49:59.696Z,7.32
2023-01-27T16:52:41.592Z,7.98
2023-01-27T16:55:22.824Z,7.88
2023-01-27T16:57:53.478Z,7.81
2023-01-27T17:00:26.712Z,7.55
2023-01-27T17:02:58.084Z,7.83
2023-01-27T17:05:27.205Z,7.75
2023-01-27T17:08:15.827Z,7.69
2023-01-27T17:10:46.593Z,7.58
2023-01-27T17:13:29.699Z,7.61
2023-01-27T17:16:02.020Z,7.48
2023-01-27T17:18:37.536Z,7.63
2023-01-27T17:21:10.224Z,7.42
2023-01-27T17:23:39.594Z,7.53
2023-01-27T17:26:15.078Z,7.52
2023-01-27T17:28:45.732Z,7.49
2023-01-27T17:31:19.234Z,7.67
2023-01-27T17:33:51.191Z,7.40
2023-01-27T17:36:19.461Z,7.50
2023-01-27T17:38:50.163Z,7.53
2023-01-27T17:41:28.771Z,7.62
2023-01-27T17:44:01.411Z,7.69
2023-01-27T17:46:33.601Z,7.53
2023-01-27T17:49:05.606Z,7.74
2023-01-27T17:51:42.303Z,7.80
2023-01-27T17:54:22.755Z,7.79
2023-01-27T17:56:58.699Z,7.76
2023-01-27T17:59:27.719Z,7.76
2023-01-27T18:02:03.497Z,7.84
2023-01-27T18:04:38.783Z,7.83
2023-01-27T18:07:07.058Z,7.72
2023-01-27T18:09:35.322Z,7.59
2023-01-27T18:12:07.254Z,7.34
2023-01-27T18:14:36.825Z,7.66
2023-01-27T18:17:22.321Z,7.70
2023-01-27T18:19:56.948Z,7.69
2023-01-27T18:22:27.137Z,7.76
2023-01-27T18:24:57.988Z,7.80
2023-01-27T18:27:33.004Z,7.80
2023-01-27T18:30:04.576Z,7.80
2023-01-27T18:32:41.930Z,7.82
2023-01-27T18:35:27.618Z,7.91
2023-01-27T18:37:59.892Z,7.49
2023-01-27T18:40:31.766Z,7.67
2023-01-27T18:43:01.198Z,7.44
2023-01-27T18:45:30.146Z,7.74
2023-01-27T18:48:01.085Z,7.79
2023-01-27T18:50:30.516Z,7.84
2023-01-27T18:52:59.327Z,7.84
2023-01-27T18:55:29.624Z,7.90
2023-01-27T18:57:59.738Z,7.85
2023-01-27T19:00:34.719Z,7.89
2023-01-27T19:03:08.693Z,7.73
2023-01-27T19:05:37.498Z,7.80
2023-01-27T19:08:06.337Z,7.84
2023-01-27T19:10:36.121Z,7.83
2023-01-27T19:13:05.992Z,7.76
2023-01-27T19:15:37.322Z,7.76
2023-01-27T19:18:16.262Z,7.72
2023-01-27T19:20:44.656Z,7.64
2023-01-27T19:23:15.759Z,7.64
2023-01-27T19:25:45.509Z,7.69
2023-01-27T19:28:19.140Z,7.67
2023-01-27T19:30:48.281Z,7.47
2023-01-27T19:33:23.572Z,7.59
2023-01-27T19:35:55.736Z,7.50
2023-01-27T19:38:24.716Z,7.36
2023-01-27T19:40:53.282Z,7.09
2023-01-27T19:43:21.805Z,7.13
2023-01-27T19:45:51.655Z,7.08
2023-01-27T19:48:24.623Z,7.05
2023-01-27T19:50:54.036Z,7.09
2023-01-27T19:53:22.595Z,7.14
2023-01-27T19:55:51.699Z,7.02
2023-01-27T19:58:23.639Z,7.06
2023-01-27T20:00:52.817Z,7.10
2023-01-27T20:03:23.218Z,7.18
2023-01-27T20:05:51.791Z,7.21
2023-01-27T20:08:23.062Z,7.19
2023-01-27T20:10:52.656Z,7.26
2023-01-27T20:13:22.205Z,7.29
2023-01-27T20:15:51.642Z,7.23
2023-01-27T20:18:22.805Z,7.29
2023-01-27T20:20:53.762Z,7.25
2023-01-27T20:23:22.122Z,7.25
2023-01-27T20:25:50.488Z,6.89
2023-01-27T20:28:19.022Z,7.04
2023-01-27T20:30:47.382Z,7.14
2023-01-27T20:33:15.765Z,7.14
2023-01-27T20:35:44.676Z,7.17
2023-01-27T20:38:14.296Z,7.24
2023-01-27T20:40:42.637Z,7.27
2023-01-27T20:43:11.088Z,7.32
2023-01-27T20:45:40.738Z,7.30
2023-01-27T20:48:12.336Z,7.32
2023-01-27T20:50:40.612Z,7.37
2023-01-27T20:53:08.861Z,7.39
2023-01-27T20:55:38.664Z,7.42
2023-01-27T20:58:07.086Z,7.38
2023-01-27T21:00:35.334Z,7.41
2023-01-27T21:03:04.487Z,7.40
2023-01-27T21:05:34.322Z,7.38
2023-01-27T21:08:02.653Z,7.28
2023-01-27T21:10:31.057Z,7.27
2023-01-27T21:13:00.780Z,7.23
2023-01-27T21:15:29.095Z,7.19
2023-01-27T21:17:57.526Z,7.25
2023-01-27T21:20:25.785Z,7.19
2023-01-27T21:22:54.094Z,7.22
2023-01-27T21:25:22.561Z,7.16
2023-01-27T21:27:50.907Z,6.62
2023-01-27T21:30:20.847Z,5.63
2023-01-27T21:32:49.399Z,6.77
2023-01-27T21:35:17.847Z,6.66
2023-01-27T21:37:46.148Z,6.57
2023-01-27T21:40:14.795Z,6.76
2023-01-27T21:43:00.508Z,6.86
2023-01-27T21:45:30.135Z,6.73
2023-01-27T21:47:58.417Z,6.83
2023-01-27T21:50:26.762Z,6.70
2023-01-27T21:52:55.332Z,6.58
2023-01-27T21:55:25.895Z,6.54
2023-01-27T21:57:55.310Z,6.69
2023-01-27T22:00:27.126Z,6.78
2023-01-27T22:02:59.389Z,6.95
2023-01-27T22:05:29.096Z,6.99
2023-01-27T22:07:57.451Z,7.03
2023-01-27T22:10:27.947Z,7.07
2023-01-27T22:12:59.217Z,7.01
2023-01-27T22:15:29.494Z,6.95
2023-01-27T22:17:59.814Z,6.93
2023-01-27T22:20:29.033Z,7.07
2023-01-27T22:22:57.375Z,7.15
2023-01-27T22:25:27.072Z,7.10
2023-01-27T22:27:56.324Z,7.02
2023-01-27T22:30:25.135Z,7.13
2023-01-27T22:32:53.781Z,7.19
2023-01-27T22:35:23.507Z,7.30
2023-01-27T22:37:53.184Z,7.26
2023-01-27T22:40:21.772Z,7.16
2023-01-27T22:42:50.840Z,7.22
2023-01-27T22:45:19.577Z,7.27
2023-01-27T22:47:49.435Z,7.24
2023-01-27T22:50:18.409Z,7.24
2023-01-27T22:52:48.438Z,7.27
2023-01-27T22:55:17.109Z,7.22
2023-01-27T22:57:47.842Z,7.25
2023-01-27T23:00:16.810Z,7.21
2023-01-27T23:02:45.210Z,7.22
2023-01-27T23:05:13.859Z,7.25
2023-01-27T23:07:42.333Z,7.28
2023-01-27T23:10:12.706Z,7.27
2023-01-27T23:12:41.107Z,7.33
2023-01-27T23:15:10.747Z,7.27
2023-01-27T23:17:39.273Z,7.38
2023-01-27T23:20:09.639Z,7.31
2023-01-27T23:22:37.880Z,7.31
2023-01-27T23:25:07.512Z,7.32
2023-01-27T23:27:37.172Z,7.30
2023-01-27T23:30:09.007Z,7.21
2023-01-27T23:32:37.886Z,7.31
2023-01-27T23:35:07.716Z,7.42
2023-01-27T23:37:36.322Z,7.40
2023-01-27T23:40:05.343Z,7.40
2023-01-27T23:42:34.256Z,7.13
2023-01-27T23:45:04.519Z,7.29
2023-01-27T23:47:32.867Z,7.27
2023-01-27T23:50:01.223Z,7.26
2023-01-27T23:52:30.252Z,7.28
2023-01-27T23:54:58.563Z,7.24
2023-01-27T23:57:26.867Z,7.22
2023-01-27T23:59:55.134Z,7.22
